Time;durP1;ratioP1;P1;durP2;ratioP2;P2;SDS_P1;SDS_P2;PMS_P1;PMS_P2;Temp;Humidity;BMP_temperature;BMP_pressure;BME280_temperature;BME280_humidity;BME280_pressure;Samples;Min_cycle;Max_cycle;Signal;HPM_P1;HPM_P2
2021/07/18 00:00:52;;;;;;;37.70;20.50;;;;;;;21.01;100.00;96544.28;4977307;28;20223;-70
2021/07/18 00:03:18;;;;;;;44.17;20.27;;;;;;;21.01;100.00;96534.38;4977064;28;20203;-71
2021/07/18 00:05:45;;;;;;;49.13;22.05;;;;;;;20.99;100.00;96546.38;4977094;28;20214;-70
2021/07/18 00:08:11;;;;;;;45.38;22.00;;;;;;;20.97;100.00;96535.91;4976706;28;20223;-71
2021/07/18 00:10:38;;;;;;;44.78;22.58;;;;;;;20.77;100.00;96539.97;4976299;28;20227;-70
2021/07/18 00:13:04;;;;;;;36.95;20.67;;;;;;;20.80;100.00;96533.34;4977019;28;20210;-71
2021/07/18 00:15:33;;;;;;;38.22;20.38;;;;;;;21.01;100.00;96534.38;4977187;28;20211;-71
2021/07/18 00:18:00;;;;;;;44.85;21.27;;;;;;;20.98;100.00;96534.06;4976441;28;20208;-71
2021/07/18 00:20:26;;;;;;;39.63;20.38;;;;;;;20.90;100.00;96531.69;4975896;28;20703;-70
2021/07/18 00:22:53;;;;;;;37.85;19.25;;;;;;;20.98;100.00;96532.19;4977955;28;20238;-71
2021/07/18 00:25:19;;;;;;;32.83;19.70;;;;;;;20.87;100.00;96537.53;4976667;28;20759;-71
2021/07/18 00:27:46;;;;;;;31.80;19.17;;;;;;;20.95;100.00;96529.16;4975275;28;20207;-71
2021/07/18 00:30:13;;;;;;;31.98;18.67;;;;;;;20.90;99.55;96532.53;4976648;28;20216;-70
2021/07/18 00:32:42;;;;;;;36.55;21.48;;;;;;;20.84;100.00;96529.97;4976861;28;20210;-71
2021/07/18 00:35:10;;;;;;;34.15;20.35;;;;;;;20.65;100.00;96539.13;4976044;28;20327;-70
2021/07/18 00:37:37;;;;;;;38.75;20.70;;;;;;;20.67;100.00;96541.56;4975611;28;20210;-71
2021/07/18 00:40:05;;;;;;;36.40;21.85;;;;;;;20.82;100.00;96533.94;4976180;28;20591;-71
2021/07/18 00:42:32;;;;;;;37.15;20.77;;;;;;;20.76;100.00;96540.22;4976349;28;20227;-71
2021/07/18 00:44:58;;;;;;;33.65;20.73;;;;;;;20.74;100.00;96540.44;4976566;28;20203;-70
2021/07/18 00:47:26;;;;;;;33.13;19.42;;;;;;;20.74;100.00;96534.28;4972654;28;20659;-71
2021/07/18 00:49:54;;;;;;;35.78;21.02;;;;;;;20.78;100.00;96538.13;4976424;28;20215;-71
2021/07/18 00:52:21;;;;;;;34.20;19.10;;;;;;;20.53;100.00;96530.28;4976280;28;20213;-71
2021/07/18 00:54:48;;;;;;;38.67;19.50;;;;;;;20.55;100.00;96535.41;4976432;28;20219;-71
2021/07/18 00:57:14;;;;;;;35.85;20.40;;;;;;;20.45;100.00;96527.13;4975829;28;20203;-71
2021/07/18 00:59:41;;;;;;;35.70;18.05;;;;;;;20.39;100.00;96534.22;4975721;28;20223;-70
2021/07/18 01:02:08;;;;;;;32.47;19.05;;;;;;;20.17;100.00;96537.63;4976097;28;20238;-71
2021/07/18 01:04:35;;;;;;;27.08;16.98;;;;;;;20.29;100.00;96535.84;4976625;28;20203;-71
2021/07/18 01:07:04;;;;;;;19.02;13.88;;;;;;;20.29;100.00;96543.88;4975023;28;20207;-71
2021/07/18 01:09:31;;;;;;;21.52;13.68;;;;;;;20.11;99.56;96535.91;4975628;28;20223;-71
2021/07/18 01:11:58;;;;;;;28.83;15.52;;;;;;;20.12;100.00;96542.88;4975843;28;20244;-71
2021/07/18 01:14:25;;;;;;;30.20;16.10;;;;;;;20.14;100.00;96540.78;4975743;28;20219;-70
2021/07/18 01:16:51;;;;;;;22.25;14.63;;;;;;;20.17;99.18;96534.97;4975681;28;20207;-70
2021/07/18 01:19:20;;;;;;;33.42;14.55;;;;;;;20.19;97.61;96538.25;4975221;28;20238;-71
2021/07/18 01:21:53;;;;;;;30.42;15.43;;;;;;;20.16;98.33;96532.53;4975582;28;20238;-71
2021/07/18 01:24:19;;;;;;;33.03;14.05;;;;;;;20.07;98.38;96534.69;4975918;28;20563;-71
2021/07/18 01:26:46;;;;;;;35.90;13.25;;;;;;;20.12;97.81;96536.72;4976011;28;20230;-70
2021/07/18 01:29:12;;;;;;;31.10;13.48;;;;;;;20.09;98.34;96537.19;4975334;28;20231;-71
2021/07/18 01:31:39;;;;;;;30.08;13.25;;;;;;;19.88;98.58;96530.44;4974701;28;20203;-71
2021/07/18 01:34:05;;;;;;;20.67;12.00;;;;;;;19.82;99.69;96531.34;4976413;28;20208;-71
2021/07/18 01:36:32;;;;;;;26.35;13.05;;;;;;;20.02;98.58;96531.91;4975792;28;20207;-71
2021/07/18 01:39:00;;;;;;;30.80;13.27;;;;;;;19.98;97.78;96541.41;4974455;28;20199;-70
2021/07/18 01:41:26;;;;;;;30.33;13.30;;;;;;;19.83;98.48;96540.16;4975053;28;20585;-71
2021/07/18 01:43:53;;;;;;;33.78;13.63;;;;;;;19.95;97.51;96539.22;4976149;28;20199;-71
2021/07/18 01:46:20;;;;;;;33.40;14.25;;;;;;;19.91;98.34;96540.72;4972395;28;20215;-71
2021/07/18 01:48:51;;;;;;;33.50;14.02;;;;;;;20.01;98.75;96546.34;4974142;28;20200;-70
2021/07/18 01:51:21;;;;;;;34.33;13.77;;;;;;;19.89;99.44;96537.41;4975430;28;20206;-71
2021/07/18 01:53:50;;;;;;;37.50;14.65;;;;;;;19.98;98.45;96530.72;4975081;28;20207;-70
2021/07/18 01:56:18;;;;;;;22.65;12.02;;;;;;;20.02;97.71;96531.91;4974822;28;20203;-71
2021/07/18 01:58:44;;;;;;;29.08;12.63;;;;;;;20.08;96.62;96527.50;4974763;28;20203;-70
2021/07/18 02:01:11;;;;;;;27.50;12.77;;;;;;;19.98;97.19;96522.69;4975116;28;20229;-71
2021/07/18 02:03:37;;;;;;;24.05;12.38;;;;;;;20.01;96.46;96519.59;4974477;28;20234;-70
2021/07/18 02:06:04;;;;;;;28.88;13.80;;;;;;;19.86;97.42;96516.47;4976041;28;20207;-71
2021/07/18 02:08:31;;;;;;;32.95;12.18;;;;;;;19.75;97.71;96519.09;4973538;28;20199;-70
2021/07/18 02:10:57;;;;;;;32.00;12.57;;;;;;;19.52;98.86;96518.19;4974994;28;20260;-71
2021/07/18 02:13:25;;;;;;;26.63;12.20;;;;;;;19.65;98.59;96519.66;4974986;28;20210;-70
2021/07/18 02:15:52;;;;;;;23.73;12.20;;;;;;;19.62;98.44;96525.44;4975795;28;20203;-71
2021/07/18 02:18:18;;;;;;;26.70;11.77;;;;;;;19.75;97.28;96530.59;4971035;28;20208;-70
2021/07/18 02:20:45;;;;;;;23.10;11.68;;;;;;;19.79;97.21;96531.81;4975329;28;20226;-71
2021/07/18 02:23:12;;;;;;;26.75;11.90;;;;;;;19.68;97.93;96537.91;4974387;28;20223;-70
2021/07/18 02:25:38;;;;;;;28.80;11.05;;;;;;;19.62;98.31;96535.31;4975062;28;20218;-71
2021/07/18 02:28:05;;;;;;;22.70;11.07;;;;;;;19.58;98.54;96540.28;4973851;28;20207;-70
2021/07/18 02:30:33;;;;;;;19.23;10.80;;;;;;;19.76;97.13;96526.88;4975044;28;20227;-71
2021/07/18 02:32:59;;;;;;;19.85;11.82;;;;;;;19.65;97.48;96535.69;4975118;28;20199;-70
2021/07/18 02:35:27;;;;;;;22.27;10.50;;;;;;;19.67;95.78;96538.94;4975110;28;20207;-71
2021/07/18 02:37:53;;;;;;;14.18;9.43;;;;;;;19.52;95.96;96542.25;4974441;28;20203;-71
2021/07/18 02:40:21;;;;;;;17.35;9.98;;;;;;;19.57;95.29;96544.00;4974269;28;20235;-70
2021/07/18 02:42:48;;;;;;;20.65;10.00;;;;;;;19.51;95.83;96545.94;4974680;28;20223;-70
2021/07/18 02:45:17;;;;;;;12.30;8.57;;;;;;;19.55;93.98;96539.09;4972422;28;20211;-71
2021/07/18 02:47:45;;;;;;;18.45;10.20;;;;;;;19.46;95.13;96543.13;4974028;28;20206;-71
2021/07/18 02:50:14;;;;;;;19.23;9.90;;;;;;;19.29;95.91;96539.44;4973485;28;20280;-70
2021/07/18 02:52:41;;;;;;;22.88;8.50;;;;;;;19.47;93.79;96537.56;4974418;28;20207;-71
2021/07/18 02:55:09;;;;;;;18.58;8.85;;;;;;;19.44;93.49;96543.34;4974835;28;20761;-71
2021/07/18 02:57:36;;;;;;;17.88;8.55;;;;;;;19.20;92.67;96535.44;4973710;28;20200;-71
2021/07/18 03:00:05;;;;;;;15.63;7.88;;;;;;;19.16;92.80;96535.06;4974504;28;20223;-70
2021/07/18 03:02:32;;;;;;;16.80;7.85;;;;;;;19.13;92.18;96545.34;4974137;28;20226;-71
2021/07/18 03:05:01;;;;;;;12.50;7.55;;;;;;;19.12;92.87;96543.75;4974608;28;20204;-71
2021/07/18 03:07:27;;;;;;;19.08;7.60;;;;;;;19.03;93.52;96542.38;4974359;28;20207;-71
2021/07/18 03:09:54;;;;;;;19.80;8.40;;;;;;;18.85;94.90;96545.03;4974404;28;20228;-70
2021/07/18 03:12:20;;;;;;;12.30;7.05;;;;;;;18.97;94.26;96544.06;4974189;28;20840;-70
2021/07/18 03:14:47;;;;;;;11.82;7.05;;;;;;;18.79;94.72;96559.25;4974638;28;20199;-70
2021/07/18 03:17:13;;;;;;;12.88;6.22;;;;;;;18.89;93.31;96548.88;4974126;28;20199;-71
2021/07/18 03:19:40;;;;;;;15.55;6.40;;;;;;;18.90;92.18;96553.16;4975269;28;20234;-69
2021/07/18 03:22:08;;;;;;;9.77;6.47;;;;;;;19.04;91.86;96544.81;4977897;28;20207;-71
2021/07/18 03:24:35;;;;;;;8.45;5.22;;;;;;;18.86;90.81;96548.50;4977771;28;20203;-71
2021/07/18 03:27:01;;;;;;;12.23;6.25;;;;;;;18.82;91.47;96537.44;4977761;28;20211;-71
2021/07/18 03:29:28;;;;;;;11.07;6.20;;;;;;;18.83;92.10;96535.59;4976826;28;20361;-71
2021/07/18 03:31:55;;;;;;;12.02;6.85;;;;;;;18.80;93.21;96544.03;4977824;28;20200;-70
2021/07/18 03:34:21;;;;;;;11.60;7.15;;;;;;;18.79;93.10;96545.91;4978032;28;20203;-71
2021/07/18 03:36:48;;;;;;;20.33;7.25;;;;;;;18.66;92.84;96542.50;4977541;28;20225;-71
2021/07/18 03:39:16;;;;;;;15.93;7.88;;;;;;;18.65;94.17;96547.03;4976546;28;20227;-70
2021/07/18 03:41:42;;;;;;;13.32;6.15;;;;;;;18.59;92.39;96545.25;4977310;28;20207;-70
2021/07/18 03:44:09;;;;;;;7.88;6.15;;;;;;;18.63;91.21;96551.78;4977245;28;20906;-70
2021/07/18 03:46:35;;;;;;;13.80;6.50;;;;;;;18.62;92.81;96547.50;4973802;28;20210;-70
2021/07/18 03:49:02;;;;;;;9.40;5.57;;;;;;;18.41;92.42;96537.19;4977253;28;20211;-70
2021/07/18 03:51:28;;;;;;;8.88;5.43;;;;;;;18.36;92.38;96546.88;4976617;28;20203;-71
2021/07/18 03:53:55;;;;;;;11.60;6.65;;;;;;;18.41;93.29;96550.53;4977086;28;20386;-70
2021/07/18 03:56:23;;;;;;;18.10;7.05;;;;;;;18.06;97.02;96545.03;4977486;28;20207;-71
2021/07/18 03:58:49;;;;;;;12.32;6.07;;;;;;;18.33;93.47;96551.84;4977276;28;20385;-71
2021/07/18 04:01:16;;;;;;;13.48;6.95;;;;;;;18.29;93.13;96539.97;4976391;28;20200;-71
2021/07/18 04:03:46;;;;;;;15.43;7.15;;;;;;;18.29;94.54;96545.31;4977059;28;20223;-70
2021/07/18 04:06:13;;;;;;;11.00;7.10;;;;;;;18.38;93.59;96550.16;4977481;28;20203;-71
2021/07/18 04:08:39;;;;;;;11.93;6.15;;;;;;;18.52;92.22;96554.34;4976095;28;20214;-71
2021/07/18 04:11:06;;;;;;;12.10;5.18;;;;;;;18.57;90.30;96552.66;4976301;28;20223;-70
2021/07/18 04:13:34;;;;;;;16.23;7.05;;;;;;;18.46;92.51;96558.69;4977139;28;20278;-71
2021/07/18 04:16:00;;;;;;;8.82;6.28;;;;;;;18.44;93.51;96557.28;4976756;28;20867;-71
2021/07/18 04:18:27;;;;;;;11.05;6.03;;;;;;;18.44;92.82;96560.78;4975788;28;20199;-71
2021/07/18 04:20:53;;;;;;;9.23;5.75;;;;;;;18.45;91.52;96562.41;4976807;28;20219;-71
2021/07/18 04:23:20;;;;;;;9.25;4.63;;;;;;;18.28;92.14;96571.19;4976642;28;20234;-71
2021/07/18 04:25:47;;;;;;;5.95;4.97;;;;;;;18.47;92.00;96571.03;4976730;28;20210;-70
2021/07/18 04:28:14;;;;;;;11.18;5.28;;;;;;;18.45;93.25;96562.41;4976165;28;20207;-71
2021/07/18 04:30:42;;;;;;;13.10;6.28;;;;;;;18.45;95.01;96561.59;4975182;28;20230;-70
2021/07/18 04:33:09;;;;;;;19.42;7.65;;;;;;;18.38;96.09;96560.84;4975955;28;20195;-70
2021/07/18 04:35:36;;;;;;;19.25;7.85;;;;;;;18.39;96.17;96560.63;4976912;28;20207;-70
2021/07/18 04:38:03;;;;;;;15.20;7.35;;;;;;;18.49;96.25;96560.13;4975939;28;20214;-71
2021/07/18 04:40:31;;;;;;;10.38;6.88;;;;;;;18.52;95.56;96567.69;4976301;28;20231;-70
2021/07/18 04:42:57;;;;;;;14.90;6.57;;;;;;;18.59;94.75;96563.94;4976157;28;20594;-70
2021/07/18 04:45:24;;;;;;;11.82;6.75;;;;;;;18.68;94.44;96567.97;4973748;28;20203;-70
2021/07/18 04:47:53;;;;;;;16.20;6.97;;;;;;;18.72;94.83;96569.16;4975309;28;20203;-71
2021/07/18 04:50:21;;;;;;;10.95;6.53;;;;;;;18.84;94.77;96567.41;4976407;28;20224;-70
2021/07/18 04:52:48;;;;;;;16.58;7.60;;;;;;;18.92;94.64;96575.13;4976336;28;20257;-71
2021/07/18 04:55:17;;;;;;;12.05;6.50;;;;;;;19.03;94.34;96577.09;4976787;28;20674;-71
2021/07/18 04:57:44;;;;;;;22.13;7.38;;;;;;;19.10;94.54;96583.22;4975366;28;20200;-70
2021/07/18 05:00:12;;;;;;;18.77;7.68;;;;;;;19.17;95.23;96581.28;4976392;28;20234;-71
2021/07/18 05:02:39;;;;;;;16.08;7.30;;;;;;;19.16;94.76;96577.00;4975542;28;20389;-71
2021/07/18 05:05:09;;;;;;;14.13;6.93;;;;;;;19.39;94.56;96590.50;4976101;28;20730;-71
2021/07/18 05:07:45;;;;;;;16.25;7.20;;;;;;;19.46;94.60;96588.56;4975711;28;20209;-71
2021/07/18 05:10:11;;;;;;;11.48;6.63;;;;;;;19.48;94.26;96581.97;4976384;28;20227;-71
2021/07/18 05:12:38;;;;;;;17.65;6.18;;;;;;;19.33;94.71;96584.19;4974942;28;21059;-71
2021/07/18 05:15:06;;;;;;;9.30;5.63;;;;;;;19.51;93.70;96589.53;4976188;28;20304;-70
2021/07/18 05:17:32;;;;;;;10.15;4.82;;;;;;;19.31;93.34;96586.28;4976235;28;20203;-71
2021/07/18 05:19:59;;;;;;;12.63;5.40;;;;;;;19.48;94.39;96589.19;4976890;28;20234;-71
2021/07/18 05:22:26;;;;;;;12.65;5.38;;;;;;;19.66;94.85;96587.31;4976930;28;20203;-71
2021/07/18 05:24:53;;;;;;;9.70;4.93;;;;;;;19.42;94.80;96587.38;4977024;28;20211;-70
2021/07/18 05:27:20;;;;;;;15.18;4.80;;;;;;;19.63;94.31;96583.22;4975224;28;20315;-71
2021/07/18 05:29:46;;;;;;;12.45;5.28;;;;;;;19.56;94.95;96586.19;4976394;28;20343;-71
2021/07/18 05:32:13;;;;;;;10.90;4.57;;;;;;;19.64;94.81;96584.84;4975711;28;20203;-72
2021/07/18 05:34:40;;;;;;;12.98;4.43;;;;;;;19.27;94.77;96578.91;4976052;28;20207;-71
2021/07/18 05:37:07;;;;;;;10.32;4.60;;;;;;;19.49;94.77;96582.78;4975694;28;20200;-71
2021/07/18 05:39:34;;;;;;;10.55;4.28;;;;;;;19.34;95.20;96582.34;4976088;28;21166;-71
2021/07/18 05:42:02;;;;;;;13.82;4.65;;;;;;;19.48;93.99;96575.81;4975908;28;20230;-71
2021/07/18 05:44:29;;;;;;;12.35;4.40;;;;;;;19.39;94.22;96571.81;4976487;28;20230;-71
2021/07/18 05:46:55;;;;;;;11.23;4.03;;;;;;;19.58;93.21;96569.69;4974117;28;20203;-71
2021/07/18 05:49:22;;;;;;;12.95;4.68;;;;;;;19.43;94.23;96575.66;4976028;28;20711;-70
2021/07/18 05:51:48;;;;;;;10.63;3.85;;;;;;;19.15;95.18;96581.50;4976627;28;20203;-69
2021/07/18 05:54:15;;;;;;;17.23;4.57;;;;;;;19.47;95.14;96580.31;4976382;28;20200;-72
2021/07/18 05:56:43;;;;;;;25.40;4.63;;;;;;;19.58;95.95;96572.38;4977361;28;20568;-71
2021/07/18 05:59:09;;;;;;;12.70;4.05;;;;;;;19.68;94.80;96574.53;4976426;28;20215;-70
2021/07/18 06:01:36;;;;;;;9.32;3.90;;;;;;;19.79;93.96;96569.25;4976851;28;20931;-71
2021/07/18 06:04:02;;;;;;;13.00;4.22;;;;;;;19.75;93.95;96577.94;4977223;28;20226;-70
2021/07/18 06:06:29;;;;;;;10.63;3.80;;;;;;;19.98;93.73;96576.19;4977036;28;20225;-71
2021/07/18 06:08:55;;;;;;;10.10;3.85;;;;;;;20.06;93.25;96586.59;4976513;28;20203;-70
2021/07/18 06:11:22;;;;;;;14.38;4.10;;;;;;;20.03;95.29;96579.00;4977489;28;21135;-69
2021/07/18 06:13:50;;;;;;;10.63;3.38;;;;;;;19.86;94.00;96578.00;4975815;28;20199;-71
2021/07/18 06:16:17;;;;;;;16.13;3.70;;;;;;;19.97;93.65;96590.63;4975255;28;20203;-70
2021/07/18 06:18:43;;;;;;;9.10;3.65;;;;;;;20.29;91.55;96589.38;4974391;28;20200;-73
2021/07/18 06:21:10;;;;;;;6.07;3.40;;;;;;;20.38;93.11;96593.34;4975716;28;20223;-73
2021/07/18 06:23:36;;;;;;;8.20;3.25;;;;;;;20.56;89.35;96587.91;4975952;28;20231;-73
2021/07/18 06:26:04;;;;;;;11.27;3.70;;;;;;;20.38;92.23;96585.31;4974496;28;20218;-73
2021/07/18 06:28:31;;;;;;;6.38;3.45;;;;;;;20.26;90.41;96577.25;4974223;28;20306;-72
2021/07/18 06:30:59;;;;;;;8.40;3.47;;;;;;;20.86;89.75;96582.28;4975421;28;20816;-73
2021/07/18 06:33:25;;;;;;;6.07;3.38;;;;;;;20.97;89.39;96591.38;4974422;28;20195;-72
2021/07/18 06:35:52;;;;;;;12.95;3.28;;;;;;;21.12;87.89;96584.50;4974874;28;21076;-72
2021/07/18 06:38:18;;;;;;;9.55;3.38;;;;;;;21.15;87.83;96597.41;4974834;28;20211;-73
2021/07/18 06:40:45;;;;;;;14.98;3.53;;;;;;;20.86;90.26;96590.31;4975030;28;20227;-73
2021/07/18 06:43:12;;;;;;;12.13;3.28;;;;;;;20.98;90.35;96588.44;4974891;28;20682;-72
2021/07/18 06:45:38;;;;;;;12.60;3.35;;;;;;;20.90;89.40;96599.53;4971829;28;20975;-72
2021/07/18 06:48:07;;;;;;;5.43;3.17;;;;;;;21.05;87.54;96594.53;4974467;28;20202;-73
2021/07/18 06:50:33;;;;;;;6.70;3.10;;;;;;;21.06;88.04;96598.81;4973990;28;20228;-72
2021/07/18 06:53:00;;;;;;;9.63;3.22;;;;;;;21.09;85.80;96594.84;4975876;28;20207;-72
2021/07/18 06:55:26;;;;;;;8.95;3.60;;;;;;;20.98;87.73;96593.81;4977899;28;20214;-73
2021/07/18 06:57:53;;;;;;;6.65;2.83;;;;;;;20.99;86.37;96599.97;4977702;28;20214;-73
2021/07/18 07:00:21;;;;;;;8.02;3.28;;;;;;;21.12;87.10;96594.41;4977920;28;20219;-73
2021/07/18 07:02:48;;;;;;;5.50;3.60;;;;;;;21.14;87.93;96592.28;4978330;28;20203;-72
2021/07/18 07:05:17;;;;;;;10.27;3.03;;;;;;;21.26;85.77;96591.25;4977192;28;20227;-73
2021/07/18 07:07:46;;;;;;;7.43;3.00;;;;;;;21.20;85.55;96597.53;4976848;28;20260;-72
2021/07/18 07:10:14;;;;;;;9.73;3.65;;;;;;;21.09;87.94;96592.16;4977298;28;20231;-73
2021/07/18 07:12:40;;;;;;;7.45;2.95;;;;;;;21.38;85.33;96601.97;4977620;28;20247;-73
2021/07/18 07:15:07;;;;;;;8.23;3.30;;;;;;;21.42;84.80;96596.72;4978026;28;20278;-73
2021/07/18 07:17:34;;;;;;;12.95;3.28;;;;;;;21.80;84.85;96604.25;4976929;28;20212;-73
2021/07/18 07:20:00;;;;;;;6.00;2.97;;;;;;;21.86;83.29;96595.25;4977735;28;21106;-73
2021/07/18 07:22:28;;;;;;;12.15;3.13;;;;;;;22.10;83.05;96603.78;4977008;28;20218;-73
2021/07/18 07:24:55;;;;;;;8.40;3.03;;;;;;;22.21;81.41;96599.41;4978328;28;20223;-72
2021/07/18 07:27:21;;;;;;;10.50;3.50;;;;;;;21.95;84.49;96604.56;4976546;28;20218;-72
2021/07/18 07:29:47;;;;;;;11.90;3.00;;;;;;;22.21;83.26;96605.63;4976792;28;20715;-74
2021/07/18 07:32:14;;;;;;;6.65;3.17;;;;;;;22.31;82.63;96607.69;4976631;28;20888;-72
2021/07/18 07:34:41;;;;;;;12.20;3.50;;;;;;;22.45;82.77;96600.97;4978439;28;20222;-73
2021/07/18 07:37:08;;;;;;;18.00;4.30;;;;;;;22.59;82.67;96605.81;4976905;28;20199;-73
2021/07/18 07:39:35;;;;;;;14.85;5.25;;;;;;;22.68;80.15;96604.34;4976906;28;20237;-73
2021/07/18 07:42:02;;;;;;;18.45;5.38;;;;;;;22.73;81.36;96607.13;4976854;28;20223;-72
2021/07/18 07:44:28;;;;;;;23.13;7.22;;;;;;;23.01;80.52;96610.56;4977780;28;20616;-73
2021/07/18 07:46:55;;;;;;;6.43;3.13;;;;;;;23.07;79.47;96608.81;4973427;28;20230;-72
2021/07/18 07:49:21;;;;;;;7.20;3.20;;;;;;;23.02;78.78;96616.78;4976690;28;20231;-73
2021/07/18 07:51:48;;;;;;;7.72;3.25;;;;;;;22.97;78.67;96611.28;4977026;28;20207;-73
2021/07/18 07:54:14;;;;;;;8.88;3.90;;;;;;;23.18;79.30;96607.88;4976979;28;20229;-73
2021/07/18 07:56:43;;;;;;;18.98;4.38;;;;;;;23.48;77.07;96601.88;4977381;28;20215;-73
2021/07/18 07:59:09;;;;;;;6.93;3.90;;;;;;;23.30;77.07;96599.47;4976256;28;20270;-74
2021/07/18 08:01:36;;;;;;;9.73;4.13;;;;;;;23.13;77.78;96594.34;4977347;28;20207;-73
2021/07/18 08:04:02;;;;;;;9.82;3.92;;;;;;;23.61;77.24;96600.72;4977162;28;20612;-73
2021/07/18 08:06:29;;;;;;;11.95;4.30;;;;;;;23.19;78.48;96598.75;4976680;28;20218;-73
2021/07/18 08:08:55;;;;;;;9.93;4.15;;;;;;;23.36;77.37;96598.50;4976555;28;20204;-74
2021/07/18 08:11:22;;;;;;;10.52;3.90;;;;;;;23.35;77.73;96599.53;4976818;28;20211;-74
2021/07/18 08:13:50;;;;;;;8.65;4.00;;;;;;;23.65;76.93;96591.06;4976719;28;20202;-74
2021/07/18 08:16:16;;;;;;;12.35;4.10;;;;;;;23.38;76.19;96596.38;4977494;28;20543;-74
2021/07/18 08:18:43;;;;;;;10.48;4.80;;;;;;;23.35;80.58;96590.66;4975833;28;20219;-74
2021/07/18 08:21:09;;;;;;;7.55;4.22;;;;;;;23.68;76.16;96583.31;4976864;28;20234;-74
2021/07/18 08:23:36;;;;;;;8.50;4.55;;;;;;;23.70;75.20;96591.19;4976609;28;20218;-74
2021/07/18 08:26:03;;;;;;;12.40;4.85;;;;;;;24.05;76.53;96592.44;4976816;28;20212;-74
2021/07/18 08:28:29;;;;;;;11.65;4.57;;;;;;;23.95;73.92;96584.22;4974963;28;20216;-74
2021/07/18 08:30:57;;;;;;;7.90;4.40;;;;;;;23.99;74.74;96585.34;4977262;28;20599;-73
2021/07/18 08:33:24;;;;;;;9.88;4.70;;;;;;;24.10;77.00;96585.22;4976192;28;20226;-73
2021/07/18 08:35:50;;;;;;;14.52;5.20;;;;;;;24.06;73.29;96583.28;4976753;28;20199;-74
2021/07/18 08:38:17;;;;;;;9.63;5.00;;;;;;;24.06;74.17;96594.06;4975702;28;20203;-74
2021/07/18 08:40:43;;;;;;;12.75;4.50;;;;;;;23.78;75.19;96580.81;4975426;28;20227;-74
2021/07/18 08:43:10;;;;;;;9.13;4.50;;;;;;;23.76;74.82;96582.09;4975302;28;20222;-72
2021/07/18 08:45:36;;;;;;;11.82;5.18;;;;;;;23.71;74.94;96585.53;4974411;28;20567;-70
2021/07/18 08:48:05;;;;;;;14.15;5.90;;;;;;;23.71;75.18;96585.53;4975871;28;20207;-70
2021/07/18 08:50:31;;;;;;;12.68;6.57;;;;;;;23.56;76.29;96582.63;4975649;28;20594;-70
2021/07/18 08:52:58;;;;;;;14.48;6.55;;;;;;;23.95;75.18;96586.94;4976057;28;20207;-70
2021/07/18 08:55:26;;;;;;;9.13;5.63;;;;;;;24.21;74.93;96580.75;4976389;28;20227;-70
2021/07/18 08:57:53;;;;;;;10.73;5.80;;;;;;;24.27;74.62;96585.94;4975356;28;20590;-70
2021/07/18 09:00:21;;;;;;;15.30;5.40;;;;;;;24.45;73.68;96585.63;4975126;28;20227;-70
2021/07/18 09:02:47;;;;;;;11.90;5.50;;;;;;;24.58;73.16;96591.41;4976019;28;20214;-70
2021/07/18 09:05:15;;;;;;;13.57;6.18;;;;;;;24.68;70.98;96596.91;4975704;28;20223;-70
2021/07/18 09:07:46;;;;;;;13.50;6.35;;;;;;;24.79;73.18;96595.91;4974644;28;20548;-70
2021/07/18 09:10:14;;;;;;;11.40;5.75;;;;;;;24.45;71.92;96593.69;4974908;28;20954;-70
2021/07/18 09:12:41;;;;;;;16.33;7.35;;;;;;;25.00;73.18;96594.19;4975530;28;20208;-70
2021/07/18 09:15:09;;;;;;;13.27;6.70;;;;;;;24.73;72.95;96598.81;4976210;28;20207;-70
2021/07/18 09:17:36;;;;;;;17.48;7.07;;;;;;;25.21;70.05;96599.53;4975043;28;20203;-70
2021/07/18 09:20:13;;;;;;;11.55;6.10;;;;;;;24.66;73.08;96595.53;4975484;28;20235;-70
2021/07/18 09:22:41;;;;;;;15.35;6.80;;;;;;;24.88;72.20;96597.06;4975831;28;21135;-70
2021/07/18 09:25:09;;;;;;;15.55;6.07;;;;;;;24.51;72.31;96597.28;4975701;28;20227;-70
2021/07/18 09:27:35;;;;;;;13.30;6.50;;;;;;;24.93;73.37;96591.72;4974842;28;20260;-70
2021/07/18 09:30:08;;;;;;;13.32;6.60;;;;;;;24.52;73.22;96598.91;4975443;28;20227;-70
2021/07/18 09:32:35;;;;;;;13.57;6.80;;;;;;;24.12;74.62;96599.25;4975033;28;20210;-70
2021/07/18 09:35:04;;;;;;;15.50;7.30;;;;;;;24.46;74.75;96606.09;4975063;28;20218;-70
2021/07/18 09:37:33;;;;;;;12.18;6.55;;;;;;;24.34;73.67;96594.66;4974750;28;20207;-70
2021/07/18 09:40:04;;;;;;;15.90;7.22;;;;;;;25.09;71.77;96598.91;4975471;28;20223;-70
2021/07/18 09:42:37;;;;;;;14.23;8.02;;;;;;;25.09;71.39;96593.50;4975482;28;20211;-70
2021/07/18 09:45:07;;;;;;;15.57;8.27;;;;;;;24.73;73.68;96591.56;4974902;28;20300;-70
2021/07/18 09:47:51;;;;;;;14.73;7.90;;;;;;;24.77;73.96;96592.69;4972521;28;20210;-70
2021/07/18 09:50:18;;;;;;;16.55;7.72;;;;;;;24.97;75.91;96592.03;4975156;28;20231;-70
2021/07/18 09:52:48;;;;;;;12.88;8.15;;;;;;;24.76;73.73;96587.56;4975389;28;20210;-70
2021/07/18 09:55:22;;;;;;;13.40;7.78;;;;;;;25.22;71.16;96588.47;4975348;28;20199;-70
2021/07/18 09:57:51;;;;;;;15.85;8.00;;;;;;;25.37;74.19;96596.69;4974472;28;20235;-70
2021/07/18 10:00:19;;;;;;;17.83;7.97;;;;;;;25.53;73.42;96597.59;4975470;28;20453;-70
2021/07/18 10:02:46;;;;;;;14.65;7.38;;;;;;;25.35;72.84;96598.00;4975616;28;20207;-70
2021/07/18 10:05:17;;;;;;;14.45;7.50;;;;;;;25.75;70.79;96600.97;4974929;28;20226;-69
2021/07/18 10:07:43;;;;;;;13.00;7.38;;;;;;;25.55;71.41;96600.84;4974195;28;20238;-70
2021/07/18 10:10:11;;;;;;;15.18;7.97;;;;;;;25.70;70.33;96603.59;4975078;28;20215;-70
2021/07/18 10:12:39;;;;;;;12.70;7.45;;;;;;;25.26;72.00;96591.47;4974682;28;20211;-69
2021/07/18 10:15:07;;;;;;;11.43;7.25;;;;;;;25.60;72.52;96601.69;4975803;28;20198;-70
2021/07/18 10:17:33;;;;;;;11.73;7.53;;;;;;;25.43;73.96;96595.66;4974471;28;20211;-69
2021/07/18 10:20:00;;;;;;;15.02;7.68;;;;;;;25.45;72.87;96598.06;4975577;28;20227;-69
2021/07/18 10:22:26;;;;;;;13.43;7.55;;;;;;;25.65;72.11;96596.31;4975219;28;20577;-69
2021/07/18 10:24:55;;;;;;;13.95;7.22;;;;;;;25.62;72.48;96590.63;4975901;28;20242;-69
2021/07/18 10:27:22;;;;;;;14.88;7.75;;;;;;;25.77;73.10;96593.44;4974447;28;20222;-69
2021/07/18 10:29:52;;;;;;;13.63;7.80;;;;;;;25.91;70.73;96585.38;4978681;28;20231;-69
2021/07/18 10:32:20;;;;;;;14.55;8.10;;;;;;;25.81;70.95;96583.72;4978823;28;20298;-70
2021/07/18 10:34:47;;;;;;;13.95;7.55;;;;;;;25.46;72.20;96578.13;4978807;28;20208;-70
2021/07/18 10:37:14;;;;;;;12.40;8.07;;;;;;;26.03;69.87;96575.19;4978034;28;20212;-69
2021/07/18 10:39:42;;;;;;;13.93;8.13;;;;;;;25.74;71.08;96588.53;4978974;28;20227;-69
2021/07/18 10:42:15;;;;;;;13.00;7.80;;;;;;;26.51;70.68;96581.03;4978786;28;20219;-69
2021/07/18 10:44:45;;;;;;;18.52;8.02;;;;;;;26.97;69.54;96577.28;4978426;28;20994;-69
2021/07/18 10:47:13;;;;;;;12.15;7.45;;;;;;;27.37;69.86;96574.56;4975643;28;20222;-69
2021/07/18 10:49:57;;;;;;;13.35;7.53;;;;;;;27.75;66.18;96572.06;4978880;28;20284;-70
2021/07/18 10:52:29;;;;;;;15.50;8.00;;;;;;;27.35;68.57;96577.53;4978317;28;20907;-69
2021/07/18 10:54:56;;;;;;;18.77;8.60;;;;;;;27.34;64.29;96575.94;4979442;28;20206;-70
2021/07/18 10:57:27;;;;;;;13.63;7.35;;;;;;;27.32;64.40;96577.28;4978117;28;20203;-69
2021/07/18 10:59:55;;;;;;;12.85;7.82;;;;;;;26.49;67.20;96579.66;4976715;28;20223;-69
2021/07/18 11:02:34;;;;;;;15.73;8.45;;;;;;;27.37;67.95;96563.75;4978101;28;20209;-69
2021/07/18 11:05:03;;;;;;;14.18;7.80;;;;;;;28.24;63.71;96573.78;4977147;28;20243;-70
2021/07/18 11:07:37;;;;;;;18.67;9.02;;;;;;;28.30;64.71;96569.97;4977125;28;20210;-70
2021/07/18 11:10:18;;;;;;;21.52;8.65;;;;;;;28.35;62.08;96561.78;4976921;28;20222;-69
2021/07/18 11:12:46;;;;;;;14.65;8.65;;;;;;;27.22;64.33;96574.59;4977795;28;20318;-69
2021/07/18 11:15:38;;;;;;;15.00;8.43;;;;;;;26.65;67.36;96576.69;4978198;28;20211;-69
2021/07/18 11:18:08;;;;;;;15.93;9.18;;;;;;;26.36;68.40;96576.66;4977469;28;20203;-72
2021/07/18 11:20:40;;;;;;;13.65;8.77;;;;;;;26.30;70.13;96569.56;4977667;28;20223;-71
2021/07/18 11:23:07;;;;;;;16.02;9.02;;;;;;;26.57;69.37;96571.81;4977457;28;20206;-74
2021/07/18 11:25:51;;;;;;;16.08;9.63;;;;;;;27.50;67.07;96566.69;4977487;28;20227;-74